sensor_id;sensor_type;location;lat;lon;timestamp;temperature;humidity
48589;DHT22;34369;51.174;6.738;2022-11-04T00:02:16;10.70;86.20
48589;DHT22;34369;51.174;6.738;2022-11-04T00:04:48;10.70;85.90
48589;DHT22;34369;51.174;6.738;2022-11-04T00:07:20;10.70;86.20
48589;DHT22;34369;51.174;6.738;2022-11-04T00:10:09;10.70;85.70
48589;DHT22;34369;51.174;6.738;2022-11-04T00:12:41;10.60;85.80
48589;DHT22;34369;51.174;6.738;2022-11-04T00:15:12;10.60;86.30
48589;DHT22;34369;51.174;6.738;2022-11-04T00:18:03;10.60;85.90
48589;DHT22;34369;51.174;6.738;2022-11-04T00:23:25;10.50;85.90
48589;DHT22;34369;51.174;6.738;2022-11-04T00:26:14;10.50;86.30
48589;DHT22;34369;51.174;6.738;2022-11-04T00:29:04;10.40;86.00
48589;DHT22;34369;51.174;6.738;2022-11-04T00:31:36;10.50;86.30
48589;DHT22;34369;51.174;6.738;2022-11-04T00:34:27;10.60;86.10
48589;DHT22;34369;51.174;6.738;2022-11-04T00:36:59;10.50;86.00
48589;DHT22;34369;51.174;6.738;2022-11-04T00:39:32;10.50;86.50
48589;DHT22;34369;51.174;6.738;2022-11-04T00:42:05;10.50;86.30
48589;DHT22;34369;51.174;6.738;2022-11-04T00:49:43;10.50;87.10
48589;DHT22;34369;51.174;6.738;2022-11-04T00:57:19;10.40;87.80
48589;DHT22;34369;51.174;6.738;2022-11-04T01:02:24;10.40;88.50
48589;DHT22;34369;51.174;6.738;2022-11-04T01:04:57;10.40;88.50
48589;DHT22;34369;51.174;6.738;2022-11-04T01:07:30;10.40;88.30
48589;DHT22;34369;51.174;6.738;2022-11-04T01:10:02;10.40;88.30
48589;DHT22;34369;51.174;6.738;2022-11-04T01:15:07;10.40;88.50
48589;DHT22;34369;51.174;6.738;2022-11-04T01:17:39;10.40;88.70
48589;DHT22;34369;51.174;6.738;2022-11-04T01:20:12;10.40;88.70
48589;DHT22;34369;51.174;6.738;2022-11-04T01:22:44;10.40;89.10
48589;DHT22;34369;51.174;6.738;2022-11-04T01:25:16;10.60;89.20
48589;DHT22;34369;51.174;6.738;2022-11-04T01:27:48;10.40;88.50
48589;DHT22;34369;51.174;6.738;2022-11-04T01:30:20;10.50;88.90
48589;DHT22;34369;51.174;6.738;2022-11-04T01:32:52;10.50;89.00
48589;DHT22;34369;51.174;6.738;2022-11-04T01:35:25;10.50;88.70
48589;DHT22;34369;51.174;6.738;2022-11-04T01:37:57;10.30;88.40
48589;DHT22;34369;51.174;6.738;2022-11-04T01:40:35;10.40;88.20
48589;DHT22;34369;51.174;6.738;2022-11-04T01:43:11;10.40;88.00
48589;DHT22;34369;51.174;6.738;2022-11-04T01:45:48;10.40;88.10
48589;DHT22;34369;51.174;6.738;2022-11-04T01:48:25;10.30;87.60
48589;DHT22;34369;51.174;6.738;2022-11-04T01:51:00;10.30;87.80
48589;DHT22;34369;51.174;6.738;2022-11-04T01:53:34;10.30;87.00
48589;DHT22;34369;51.174;6.738;2022-11-04T01:56:10;10.20;86.90
48589;DHT22;34369;51.174;6.738;2022-11-04T01:58:47;10.10;87.10
48589;DHT22;34369;51.174;6.738;2022-11-04T02:01:22;10.30;87.30
48589;DHT22;34369;51.174;6.738;2022-11-04T02:03:58;10.10;87.00
48589;DHT22;34369;51.174;6.738;2022-11-04T02:06:55;10.10;87.40
48589;DHT22;34369;51.174;6.738;2022-11-04T02:09:29;10.10;87.30
48589;DHT22;34369;51.174;6.738;2022-11-04T02:12:02;10.10;87.50
48589;DHT22;34369;51.174;6.738;2022-11-04T02:14:53;10.00;87.50
48589;DHT22;34369;51.174;6.738;2022-11-04T02:17:37;10.00;87.50
48589;DHT22;34369;51.174;6.738;2022-11-04T02:20:28;9.90;87.30
48589;DHT22;34369;51.174;6.738;2022-11-04T02:23:35;9.90;87.50
48589;DHT22;34369;51.174;6.738;2022-11-04T02:27:00;9.80;87.30
48589;DHT22;34369;51.174;6.738;2022-11-04T02:30:02;9.70;87.00
48589;DHT22;34369;51.174;6.738;2022-11-04T02:35:43;9.60;87.20
48589;DHT22;34369;51.174;6.738;2022-11-04T02:38:31;9.70;87.30
48589;DHT22;34369;51.174;6.738;2022-11-04T02:41:13;9.60;87.40
48589;DHT22;34369;51.174;6.738;2022-11-04T02:43:55;9.60;87.10
48589;DHT22;34369;51.174;6.738;2022-11-04T02:46:36;9.40;87.20
48589;DHT22;34369;51.174;6.738;2022-11-04T02:49:12;9.50;87.20
48589;DHT22;34369;51.174;6.738;2022-11-04T02:51:49;9.50;87.60
48589;DHT22;34369;51.174;6.738;2022-11-04T02:54:27;9.50;87.40
48589;DHT22;34369;51.174;6.738;2022-11-04T02:57:05;9.50;87.50
48589;DHT22;34369;51.174;6.738;2022-11-04T02:59:43;9.30;87.30
48589;DHT22;34369;51.174;6.738;2022-11-04T03:02:24;9.40;87.60
48589;DHT22;34369;51.174;6.738;2022-11-04T03:04:58;9.20;87.30
48589;DHT22;34369;51.174;6.738;2022-11-04T03:07:34;9.30;87.30
48589;DHT22;34369;51.174;6.738;2022-11-04T03:10:09;9.30;87.60
48589;DHT22;34369;51.174;6.738;2022-11-04T03:12:48;9.20;87.10
48589;DHT22;34369;51.174;6.738;2022-11-04T03:15:28;9.20;87.20
48589;DHT22;34369;51.174;6.738;2022-11-04T03:18:10;9.20;87.10
48589;DHT22;34369;51.174;6.738;2022-11-04T03:20:47;8.90;87.10
48589;DHT22;34369;51.174;6.738;2022-11-04T03:23:20;8.90;87.10
48589;DHT22;34369;51.174;6.738;2022-11-04T03:25:56;9.00;87.30
48589;DHT22;34369;51.174;6.738;2022-11-04T03:28:43;8.90;87.40
48589;DHT22;34369;51.174;6.738;2022-11-04T03:31:23;8.90;87.40
48589;DHT22;34369;51.174;6.738;2022-11-04T03:34:00;8.80;87.40
48589;DHT22;34369;51.174;6.738;2022-11-04T03:39:05;8.70;87.80
48589;DHT22;34369;51.174;6.738;2022-11-04T03:41:40;8.80;88.10
48589;DHT22;34369;51.174;6.738;2022-11-04T03:44:14;8.70;88.20
48589;DHT22;34369;51.174;6.738;2022-11-04T03:46:46;8.50;88.20
48589;DHT22;34369;51.174;6.738;2022-11-04T03:49:20;8.60;88.30
48589;DHT22;34369;51.174;6.738;2022-11-04T03:51:52;8.60;88.50
48589;DHT22;34369;51.174;6.738;2022-11-04T03:57:20;8.50;88.40
48589;DHT22;34369;51.174;6.738;2022-11-04T04:00:12;8.50;88.40
48589;DHT22;34369;51.174;6.738;2022-11-04T04:02:54;8.50;88.80
48589;DHT22;34369;51.174;6.738;2022-11-04T04:05:34;8.40;88.80
48589;DHT22;34369;51.174;6.738;2022-11-04T04:08:14;8.40;88.90
48589;DHT22;34369;51.174;6.738;2022-11-04T04:10:51;8.40;88.80
48589;DHT22;34369;51.174;6.738;2022-11-04T04:13:34;8.40;88.70
48589;DHT22;34369;51.174;6.738;2022-11-04T04:16:11;8.40;88.60
48589;DHT22;34369;51.174;6.738;2022-11-04T04:18:49;8.30;88.90
48589;DHT22;34369;51.174;6.738;2022-11-04T04:21:28;8.30;89.00
48589;DHT22;34369;51.174;6.738;2022-11-04T04:24:04;8.30;89.20
48589;DHT22;34369;51.174;6.738;2022-11-04T04:26:56;8.30;89.70
48589;DHT22;34369;51.174;6.738;2022-11-04T04:29:46;8.20;89.80
48589;DHT22;34369;51.174;6.738;2022-11-04T04:32:19;8.20;89.90
48589;DHT22;34369;51.174;6.738;2022-11-04T04:34:53;8.30;90.00
48589;DHT22;34369;51.174;6.738;2022-11-04T04:37:47;8.20;90.00
48589;DHT22;34369;51.174;6.738;2022-11-04T04:40:23;8.30;90.20
48589;DHT22;34369;51.174;6.738;2022-11-04T04:43:28;8.30;90.30
48589;DHT22;34369;51.174;6.738;2022-11-04T04:46:18;8.30;90.20
48589;DHT22;34369;51.174;6.738;2022-11-04T04:48:50;8.20;90.20
48589;DHT22;34369;51.174;6.738;2022-11-04T04:51:22;8.50;90.20
48589;DHT22;34369;51.174;6.738;2022-11-04T04:53:56;8.30;90.00
48589;DHT22;34369;51.174;6.738;2022-11-04T04:56:28;8.30;90.10
48589;DHT22;34369;51.174;6.738;2022-11-04T04:59:00;8.30;89.80
48589;DHT22;34369;51.174;6.738;2022-11-04T05:01:32;8.20;89.90
48589;DHT22;34369;51.174;6.738;2022-11-04T05:04:04;8.30;89.50
48589;DHT22;34369;51.174;6.738;2022-11-04T05:06:36;8.30;89.70
48589;DHT22;34369;51.174;6.738;2022-11-04T05:09:09;8.20;89.60
48589;DHT22;34369;51.174;6.738;2022-11-04T05:11:41;8.80;89.80
48589;DHT22;34369;51.174;6.738;2022-11-04T05:14:14;8.30;89.20
48589;DHT22;34369;51.174;6.738;2022-11-04T05:16:46;8.20;89.20
48589;DHT22;34369;51.174;6.738;2022-11-04T05:19:18;8.30;89.30
48589;DHT22;34369;51.174;6.738;2022-11-04T05:21:50;8.20;89.20
48589;DHT22;34369;51.174;6.738;2022-11-04T05:24:23;8.20;89.20
48589;DHT22;34369;51.174;6.738;2022-11-04T05:26:55;8.10;89.00
48589;DHT22;34369;51.174;6.738;2022-11-04T05:34:32;8.10;89.00
48589;DHT22;34369;51.174;6.738;2022-11-04T05:39:37;7.90;88.70
48589;DHT22;34369;51.174;6.738;2022-11-04T05:42:09;7.90;88.80
48589;DHT22;34369;51.174;6.738;2022-11-04T05:44:41;7.90;88.90
48589;DHT22;34369;51.174;6.738;2022-11-04T05:47:13;7.90;89.00
48589;DHT22;34369;51.174;6.738;2022-11-04T05:49:45;7.90;88.80
48589;DHT22;34369;51.174;6.738;2022-11-04T05:52:17;7.80;88.60
48589;DHT22;34369;51.174;6.738;2022-11-04T05:54:50;7.80;88.70
48589;DHT22;34369;51.174;6.738;2022-11-04T05:59:55;7.80;88.80
48589;DHT22;34369;51.174;6.738;2022-11-04T06:02:27;7.60;88.90
48589;DHT22;34369;51.174;6.738;2022-11-04T06:05:01;7.70;89.20
48589;DHT22;34369;51.174;6.738;2022-11-04T06:07:34;7.60;89.00
48589;DHT22;34369;51.174;6.738;2022-11-04T06:10:08;7.60;88.70
48589;DHT22;34369;51.174;6.738;2022-11-04T06:12:41;7.50;89.00
48589;DHT22;34369;51.174;6.738;2022-11-04T06:15:13;7.60;89.20
48589;DHT22;34369;51.174;6.738;2022-11-04T06:17:45;7.50;89.30
48589;DHT22;34369;51.174;6.738;2022-11-04T06:22:50;7.40;89.60
48589;DHT22;34369;51.174;6.738;2022-11-04T06:25:23;7.40;89.70
48589;DHT22;34369;51.174;6.738;2022-11-04T06:27:58;7.40;90.00
48589;DHT22;34369;51.174;6.738;2022-11-04T06:30:33;7.40;90.10
48589;DHT22;34369;51.174;6.738;2022-11-04T06:33:06;7.30;90.20
48589;DHT22;34369;51.174;6.738;2022-11-04T06:35:38;7.40;90.30
48589;DHT22;34369;51.174;6.738;2022-11-04T06:38:10;7.40;90.40
48589;DHT22;34369;51.174;6.738;2022-11-04T06:40:43;7.40;90.60
48589;DHT22;34369;51.174;6.738;2022-11-04T06:43:15;7.50;90.70
48589;DHT22;34369;51.174;6.738;2022-11-04T06:45:52;7.40;90.90
48589;DHT22;34369;51.174;6.738;2022-11-04T06:48:25;7.50;91.00
48589;DHT22;34369;51.174;6.738;2022-11-04T06:50:57;7.50;91.10
48589;DHT22;34369;51.174;6.738;2022-11-04T06:53:30;7.70;91.20
48589;DHT22;34369;51.174;6.738;2022-11-04T06:56:03;7.70;91.00
48589;DHT22;34369;51.174;6.738;2022-11-04T07:01:08;7.80;91.10
48589;DHT22;34369;51.174;6.738;2022-11-04T07:08:46;9.20;91.30
48589;DHT22;34369;51.174;6.738;2022-11-04T07:11:21;8.20;91.00
48589;DHT22;34369;51.174;6.738;2022-11-04T07:24:05;8.30;90.90
48589;DHT22;34369;51.174;6.738;2022-11-04T07:26:42;8.40;90.80
48589;DHT22;34369;51.174;6.738;2022-11-04T07:29:14;8.50;90.80
48589;DHT22;34369;51.174;6.738;2022-11-04T07:34:19;8.60;90.70
48589;DHT22;34369;51.174;6.738;2022-11-04T07:36:50;8.50;90.50
48589;DHT22;34369;51.174;6.738;2022-11-04T07:39:22;8.60;90.60
48589;DHT22;34369;51.174;6.738;2022-11-04T07:41:56;8.70;90.40
48589;DHT22;34369;51.174;6.738;2022-11-04T07:44:31;8.70;90.50
48589;DHT22;34369;51.174;6.738;2022-11-04T07:47:03;8.70;90.50
48589;DHT22;34369;51.174;6.738;2022-11-04T07:52:07;8.90;90.50
48589;DHT22;34369;51.174;6.738;2022-11-04T07:54:39;8.90;90.50
48589;DHT22;34369;51.174;6.738;2022-11-04T07:57:13;8.90;90.40
48589;DHT22;34369;51.174;6.738;2022-11-04T07:59:45;9.00;90.40
48589;DHT22;34369;51.174;6.738;2022-11-04T08:02:33;9.00;90.30
48589;DHT22;34369;51.174;6.738;2022-11-04T08:05:11;9.10;90.20
48589;DHT22;34369;51.174;6.738;2022-11-04T08:07:47;9.10;90.30
48589;DHT22;34369;51.174;6.738;2022-11-04T08:12:53;9.20;90.30
48589;DHT22;34369;51.174;6.738;2022-11-04T08:28:15;9.50;91.00
48589;DHT22;34369;51.174;6.738;2022-11-04T08:30:52;9.60;91.10
48589;DHT22;34369;51.174;6.738;2022-11-04T08:35:59;10.00;91.10
48589;DHT22;34369;51.174;6.738;2022-11-04T08:41:07;10.00;90.70
48589;DHT22;34369;51.174;6.738;2022-11-04T08:43:41;10.00;90.60
48589;DHT22;34369;51.174;6.738;2022-11-04T08:46:15;10.20;90.60
48589;DHT22;34369;51.174;6.738;2022-11-04T08:48:47;10.30;90.40
48589;DHT22;34369;51.174;6.738;2022-11-04T08:51:22;10.30;90.20
48589;DHT22;34369;51.174;6.738;2022-11-04T08:53:54;10.40;90.00
48589;DHT22;34369;51.174;6.738;2022-11-04T08:56:29;10.30;89.90
48589;DHT22;34369;51.174;6.738;2022-11-04T08:59:03;6.80;87.60
48589;DHT22;34369;51.174;6.738;2022-11-04T09:01:36;10.40;89.70
48589;DHT22;34369;51.174;6.738;2022-11-04T09:04:09;10.30;90.10
48589;DHT22;34369;51.174;6.738;2022-11-04T09:06:43;10.40;89.60
48589;DHT22;34369;51.174;6.738;2022-11-04T09:09:17;10.40;89.50
48589;DHT22;34369;51.174;6.738;2022-11-04T09:14:23;10.50;89.90
48589;DHT22;34369;51.174;6.738;2022-11-04T09:16:55;10.70;90.20
48589;DHT22;34369;51.174;6.738;2022-11-04T09:19:27;10.70;90.40
48589;DHT22;34369;51.174;6.738;2022-11-04T09:24:31;10.90;90.10
48589;DHT22;34369;51.174;6.738;2022-11-04T09:29:38;11.20;89.80
48589;DHT22;34369;51.174;6.738;2022-11-04T09:39:47;11.60;89.90
48589;DHT22;34369;51.174;6.738;2022-11-04T09:42:40;11.80;89.00
48589;DHT22;34369;51.174;6.738;2022-11-04T09:45:25;11.90;89.00
48589;DHT22;34369;51.174;6.738;2022-11-04T09:48:02;12.10;88.40
48589;DHT22;34369;51.174;6.738;2022-11-04T09:50:43;12.20;87.90
48589;DHT22;34369;51.174;6.738;2022-11-04T09:53:21;12.30;87.20
48589;DHT22;34369;51.174;6.738;2022-11-04T09:55:59;12.30;86.50
48589;DHT22;34369;51.174;6.738;2022-11-04T09:58:37;12.40;85.80
48589;DHT22;34369;51.174;6.738;2022-11-04T10:01:25;12.40;85.20
48589;DHT22;34369;51.174;6.738;2022-11-04T10:04:07;12.40;84.20
48589;DHT22;34369;51.174;6.738;2022-11-04T10:07:00;12.40;83.40
48589;DHT22;34369;51.174;6.738;2022-11-04T10:09:49;12.40;83.50
48589;DHT22;34369;51.174;6.738;2022-11-04T10:12:49;12.40;83.70
48589;DHT22;34369;51.174;6.738;2022-11-04T10:18:59;12.40;83.80
48589;DHT22;34369;51.174;6.738;2022-11-04T10:21:57;12.40;83.40
48589;DHT22;34369;51.174;6.738;2022-11-04T10:24:40;12.40;83.60
48589;DHT22;34369;51.174;6.738;2022-11-04T10:27:23;12.40;83.50
48589;DHT22;34369;51.174;6.738;2022-11-04T10:29:59;12.50;84.60
48589;DHT22;34369;51.174;6.738;2022-11-04T10:32:46;12.60;84.60
48589;DHT22;34369;51.174;6.738;2022-11-04T10:35:30;12.70;84.40
48589;DHT22;34369;51.174;6.738;2022-11-04T10:38:16;12.80;83.90
48589;DHT22;34369;51.174;6.738;2022-11-04T10:40:53;12.90;83.50
48589;DHT22;34369;51.174;6.738;2022-11-04T10:43:30;13.10;83.30
48589;DHT22;34369;51.174;6.738;2022-11-04T10:46:17;13.10;83.20
48589;DHT22;34369;51.174;6.738;2022-11-04T10:49:01;13.20;82.10
48589;DHT22;34369;51.174;6.738;2022-11-04T10:51:43;13.30;81.40
48589;DHT22;34369;51.174;6.738;2022-11-04T10:56:50;13.30;81.40
48589;DHT22;34369;51.174;6.738;2022-11-04T10:59:26;13.30;81.10
48589;DHT22;34369;51.174;6.738;2022-11-04T11:02:01;13.30;81.10
48589;DHT22;34369;51.174;6.738;2022-11-04T11:04:35;13.20;80.70
48589;DHT22;34369;51.174;6.738;2022-11-04T11:07:11;13.30;80.30
48589;DHT22;34369;51.174;6.738;2022-11-04T11:09:49;13.40;80.10
48589;DHT22;34369;51.174;6.738;2022-11-04T11:12:26;13.30;80.10
48589;DHT22;34369;51.174;6.738;2022-11-04T11:15:17;13.30;80.10
48589;DHT22;34369;51.174;6.738;2022-11-04T11:18:13;13.30;80.40
48589;DHT22;34369;51.174;6.738;2022-11-04T11:20:48;13.30;80.20
48589;DHT22;34369;51.174;6.738;2022-11-04T11:23:43;13.20;80.30
48589;DHT22;34369;51.174;6.738;2022-11-04T11:26:18;13.30;80.50
48589;DHT22;34369;51.174;6.738;2022-11-04T11:28:52;13.40;80.10
48589;DHT22;34369;51.174;6.738;2022-11-04T11:31:34;13.40;80.00
48589;DHT22;34369;51.174;6.738;2022-11-04T11:34:14;13.50;80.10
48589;DHT22;34369;51.174;6.738;2022-11-04T11:36:48;13.50;80.40
48589;DHT22;34369;51.174;6.738;2022-11-04T11:39:23;13.50;79.90
48589;DHT22;34369;51.174;6.738;2022-11-04T11:41:59;13.50;78.90
48589;DHT22;34369;51.174;6.738;2022-11-04T11:44:33;13.60;79.40
48589;DHT22;34369;51.174;6.738;2022-11-04T11:47:19;13.60;79.60
48589;DHT22;34369;51.174;6.738;2022-11-04T11:50:05;13.60;78.70
48589;DHT22;34369;51.174;6.738;2022-11-04T11:52:41;13.60;78.00
48589;DHT22;34369;51.174;6.738;2022-11-04T11:55:18;13.60;78.40
48589;DHT22;34369;51.174;6.738;2022-11-04T11:57:58;13.60;78.60
48589;DHT22;34369;51.174;6.738;2022-11-04T12:00:37;13.50;78.40
48589;DHT22;34369;51.174;6.738;2022-11-04T12:03:16;13.50;78.40
48589;DHT22;34369;51.174;6.738;2022-11-04T12:05:59;13.50;78.40
48589;DHT22;34369;51.174;6.738;2022-11-04T12:08:55;13.50;78.00
48589;DHT22;34369;51.174;6.738;2022-11-04T12:11:43;13.60;78.50
48589;DHT22;34369;51.174;6.738;2022-11-04T12:14:28;13.60;78.20
48589;DHT22;34369;51.174;6.738;2022-11-04T12:17:13;13.60;78.10
48589;DHT22;34369;51.174;6.738;2022-11-04T12:20:04;13.60;77.50
48589;DHT22;34369;51.174;6.738;2022-11-04T12:22:51;13.50;77.30
48589;DHT22;34369;51.174;6.738;2022-11-04T12:25:33;13.60;77.40
48589;DHT22;34369;51.174;6.738;2022-11-04T12:28:24;13.50;77.20
48589;DHT22;34369;51.174;6.738;2022-11-04T12:31:08;13.50;77.10
48589;DHT22;34369;51.174;6.738;2022-11-04T12:33:51;13.40;77.10
48589;DHT22;34369;51.174;6.738;2022-11-04T12:36:40;13.30;77.40
48589;DHT22;34369;51.174;6.738;2022-11-04T12:39:32;13.40;77.60
48589;DHT22;34369;51.174;6.738;2022-11-04T12:42:21;13.50;78.10
48589;DHT22;34369;51.174;6.738;2022-11-04T12:45:10;13.60;78.40
48589;DHT22;34369;51.174;6.738;2022-11-04T12:47:54;13.40;78.00
48589;DHT22;34369;51.174;6.738;2022-11-04T12:50:49;13.40;78.40
48589;DHT22;34369;51.174;6.738;2022-11-04T12:53:50;13.40;78.20
48589;DHT22;34369;51.174;6.738;2022-11-04T12:56:34;13.50;78.50
48589;DHT22;34369;51.174;6.738;2022-11-04T12:59:32;13.60;78.40
48589;DHT22;34369;51.174;6.738;2022-11-04T13:02:24;13.60;78.60
48589;DHT22;34369;51.174;6.738;2022-11-04T13:05:04;13.80;78.90
48589;DHT22;34369;51.174;6.738;2022-11-04T13:07:42;13.60;78.60
48589;DHT22;34369;51.174;6.738;2022-11-04T13:10:23;13.70;78.00
48589;DHT22;34369;51.174;6.738;2022-11-04T13:15:36;13.80;77.60
48589;DHT22;34369;51.174;6.738;2022-11-04T13:18:18;13.80;77.30
48589;DHT22;34369;51.174;6.738;2022-11-04T13:20:56;13.80;77.40
48589;DHT22;34369;51.174;6.738;2022-11-04T13:23:35;13.80;77.40
48589;DHT22;34369;51.174;6.738;2022-11-04T13:26:14;13.90;77.10
48589;DHT22;34369;51.174;6.738;2022-11-04T13:28:50;13.80;76.90
48589;DHT22;34369;51.174;6.738;2022-11-04T13:31:36;13.90;77.20
48589;DHT22;34369;51.174;6.738;2022-11-04T13:34:26;13.80;76.90
48589;DHT22;34369;51.174;6.738;2022-11-04T13:37:10;13.80;77.00
48589;DHT22;34369;51.174;6.738;2022-11-04T13:39:50;13.70;76.90
48589;DHT22;34369;51.174;6.738;2022-11-04T13:42:50;13.70;77.00
48589;DHT22;34369;51.174;6.738;2022-11-04T13:45:52;13.80;76.70
48589;DHT22;34369;51.174;6.738;2022-11-04T13:48:26;13.70;75.80
48589;DHT22;34369;51.174;6.738;2022-11-04T13:51:04;13.90;75.70
48589;DHT22;34369;51.174;6.738;2022-11-04T13:53:44;13.80;75.70
48589;DHT22;34369;51.174;6.738;2022-11-04T13:56:30;13.80;75.90
48589;DHT22;34369;51.174;6.738;2022-11-04T13:59:17;13.80;75.90
48589;DHT22;34369;51.174;6.738;2022-11-04T14:05:59;13.80;76.20
48589;DHT22;34369;51.174;6.738;2022-11-04T14:12:16;13.80;75.20
48589;DHT22;34369;51.174;6.738;2022-11-04T14:15:22;13.80;75.60
48589;DHT22;34369;51.174;6.738;2022-11-04T14:18:33;13.90;75.40
48589;DHT22;34369;51.174;6.738;2022-11-04T14:21:09;13.80;75.80
48589;DHT22;34369;51.174;6.738;2022-11-04T14:23:45;13.70;75.60
48589;DHT22;34369;51.174;6.738;2022-11-04T14:26:20;13.70;75.80
48589;DHT22;34369;51.174;6.738;2022-11-04T14:29:02;13.70;75.70
48589;DHT22;34369;51.174;6.738;2022-11-04T14:31:39;13.70;75.60
48589;DHT22;34369;51.174;6.738;2022-11-04T14:34:23;14.50;75.90
48589;DHT22;34369;51.174;6.738;2022-11-04T14:37:00;13.50;75.60
48589;DHT22;34369;51.174;6.738;2022-11-04T14:39:37;13.40;75.00
48589;DHT22;34369;51.174;6.738;2022-11-04T14:42:12;13.40;75.20
48589;DHT22;34369;51.174;6.738;2022-11-04T14:44:45;13.50;75.60
48589;DHT22;34369;51.174;6.738;2022-11-04T14:47:23;13.30;75.30
48589;DHT22;34369;51.174;6.738;2022-11-04T14:50:00;13.20;75.40
48589;DHT22;34369;51.174;6.738;2022-11-04T14:52:44;13.20;75.40
48589;DHT22;34369;51.174;6.738;2022-11-04T14:55:20;13.10;75.30
48589;DHT22;34369;51.174;6.738;2022-11-04T14:57:56;13.10;75.70
48589;DHT22;34369;51.174;6.738;2022-11-04T15:00:33;13.00;75.90
48589;DHT22;34369;51.174;6.738;2022-11-04T15:03:13;13.00;76.00
48589;DHT22;34369;51.174;6.738;2022-11-04T15:05:48;12.90;75.80
48589;DHT22;34369;51.174;6.738;2022-11-04T15:08:34;12.70;75.60
48589;DHT22;34369;51.174;6.738;2022-11-04T15:11:11;12.70;75.80
48589;DHT22;34369;51.174;6.738;2022-11-04T15:13:47;12.50;75.70
48589;DHT22;34369;51.174;6.738;2022-11-04T15:16:22;12.60;75.90
48589;DHT22;34369;51.174;6.738;2022-11-04T15:18:57;12.50;76.30
48589;DHT22;34369;51.174;6.738;2022-11-04T15:21:30;12.40;76.00
48589;DHT22;34369;51.174;6.738;2022-11-04T15:24:04;12.30;76.10
48589;DHT22;34369;51.174;6.738;2022-11-04T15:26:37;12.20;76.10
48589;DHT22;34369;51.174;6.738;2022-11-04T15:29:10;12.20;76.60
48589;DHT22;34369;51.174;6.738;2022-11-04T15:31:51;12.00;76.50
48589;DHT22;34369;51.174;6.738;2022-11-04T15:34:26;11.90;76.70
48589;DHT22;34369;51.174;6.738;2022-11-04T15:37:02;11.90;77.20
48589;DHT22;34369;51.174;6.738;2022-11-04T15:39:39;11.80;77.40
48589;DHT22;34369;51.174;6.738;2022-11-04T15:42:18;11.50;77.20
48589;DHT22;34369;51.174;6.738;2022-11-04T15:45:27;11.70;77.80
48589;DHT22;34369;51.174;6.738;2022-11-04T15:48:24;11.50;77.60
48589;DHT22;34369;51.174;6.738;2022-11-04T15:51:16;11.40;77.80
48589;DHT22;34369;51.174;6.738;2022-11-04T15:53:52;11.40;77.90
48589;DHT22;34369;51.174;6.738;2022-11-04T15:56:32;11.20;78.20
48589;DHT22;34369;51.174;6.738;2022-11-04T15:59:08;11.40;78.80
48589;DHT22;34369;51.174;6.738;2022-11-04T16:01:45;11.10;78.80
48589;DHT22;34369;51.174;6.738;2022-11-04T16:04:20;11.10;78.70
48589;DHT22;34369;51.174;6.738;2022-11-04T16:07:20;11.10;79.00
48589;DHT22;34369;51.174;6.738;2022-11-04T16:09:54;11.00;79.30
48589;DHT22;34369;51.174;6.738;2022-11-04T16:12:33;10.80;79.50
48589;DHT22;34369;51.174;6.738;2022-11-04T16:15:33;10.80;80.00
48589;DHT22;34369;51.174;6.738;2022-11-04T16:18:21;10.80;80.00
48589;DHT22;34369;51.174;6.738;2022-11-04T16:20:55;10.70;80.20
48589;DHT22;34369;51.174;6.738;2022-11-04T16:23:28;10.70;80.60
48589;DHT22;34369;51.174;6.738;2022-11-04T16:26:08;10.60;80.40
48589;DHT22;34369;51.174;6.738;2022-11-04T16:28:42;10.50;80.40
48589;DHT22;34369;51.174;6.738;2022-11-04T16:31:24;10.50;80.90
48589;DHT22;34369;51.174;6.738;2022-11-04T16:33:58;10.50;80.90
48589;DHT22;34369;51.174;6.738;2022-11-04T16:36:30;10.40;81.20
48589;DHT22;34369;51.174;6.738;2022-11-04T16:39:03;10.50;81.50
48589;DHT22;34369;51.174;6.738;2022-11-04T16:41:39;10.20;81.80
48589;DHT22;34369;51.174;6.738;2022-11-04T16:44:18;10.40;82.10
48589;DHT22;34369;51.174;6.738;2022-11-04T16:46:53;10.30;82.70
48589;DHT22;34369;51.174;6.738;2022-11-04T16:49:29;10.20;82.30
48589;DHT22;34369;51.174;6.738;2022-11-04T16:52:02;10.20;82.30
48589;DHT22;34369;51.174;6.738;2022-11-04T16:54:34;10.10;82.70
48589;DHT22;34369;51.174;6.738;2022-11-04T16:57:11;10.20;82.80
48589;DHT22;34369;51.174;6.738;2022-11-04T16:59:45;10.20;83.10
48589;DHT22;34369;51.174;6.738;2022-11-04T17:02:19;9.90;83.20
48589;DHT22;34369;51.174;6.738;2022-11-04T17:04:54;10.10;83.30
48589;DHT22;34369;51.174;6.738;2022-11-04T17:07:26;10.10;83.30
48589;DHT22;34369;51.174;6.738;2022-11-04T17:12:30;10.60;84.10
48589;DHT22;34369;51.174;6.738;2022-11-04T17:15:04;10.20;83.90
48589;DHT22;34369;51.174;6.738;2022-11-04T17:17:37;10.10;84.00
48589;DHT22;34369;51.174;6.738;2022-11-04T17:20:12;9.90;84.10
48589;DHT22;34369;51.174;6.738;2022-11-04T17:22:47;10.10;84.40
48589;DHT22;34369;51.174;6.738;2022-11-04T17:25:21;10.20;84.40
48589;DHT22;34369;51.174;6.738;2022-11-04T17:27:54;10.10;84.50
48589;DHT22;34369;51.174;6.738;2022-11-04T17:30:27;10.00;84.60
48589;DHT22;34369;51.174;6.738;2022-11-04T17:32:59;10.10;84.80
48589;DHT22;34369;51.174;6.738;2022-11-04T17:35:36;10.10;84.90
48589;DHT22;34369;51.174;6.738;2022-11-04T17:38:09;10.20;85.10
48589;DHT22;34369;51.174;6.738;2022-11-04T17:40:41;10.10;85.30
48589;DHT22;34369;51.174;6.738;2022-11-04T17:43:31;10.10;85.30
48589;DHT22;34369;51.174;6.738;2022-11-04T17:46:22;10.20;85.40
48589;DHT22;34369;51.174;6.738;2022-11-04T17:49:09;10.20;85.90
48589;DHT22;34369;51.174;6.738;2022-11-04T17:51:44;10.10;85.20
48589;DHT22;34369;51.174;6.738;2022-11-04T17:54:19;10.30;85.50
48589;DHT22;34369;51.174;6.738;2022-11-04T17:56:51;10.20;85.80
48589;DHT22;34369;51.174;6.738;2022-11-04T18:01:57;10.30;85.70
48589;DHT22;34369;51.174;6.738;2022-11-04T18:04:29;10.30;86.10
48589;DHT22;34369;51.174;6.738;2022-11-04T18:07:01;10.20;86.10
48589;DHT22;34369;51.174;6.738;2022-11-04T18:09:34;10.20;86.00
48589;DHT22;34369;51.174;6.738;2022-11-04T18:12:08;10.30;86.00
48589;DHT22;34369;51.174;6.738;2022-11-04T18:14:57;10.30;86.10
48589;DHT22;34369;51.174;6.738;2022-11-04T18:17:31;10.30;86.40
48589;DHT22;34369;51.174;6.738;2022-11-04T18:20:09;10.40;86.10
48589;DHT22;34369;51.174;6.738;2022-11-04T18:22:44;10.30;86.40
48589;DHT22;34369;51.174;6.738;2022-11-04T18:25:16;10.50;86.60
48589;DHT22;34369;51.174;6.738;2022-11-04T18:27:48;10.40;86.50
48589;DHT22;34369;51.174;6.738;2022-11-04T18:30:21;10.40;86.60
48589;DHT22;34369;51.174;6.738;2022-11-04T18:32:55;10.40;86.70
48589;DHT22;34369;51.174;6.738;2022-11-04T18:35:26;10.50;86.70
48589;DHT22;34369;51.174;6.738;2022-11-04T18:37:59;10.40;86.60
48589;DHT22;34369;51.174;6.738;2022-11-04T18:40:31;10.30;86.50
48589;DHT22;34369;51.174;6.738;2022-11-04T18:43:03;10.40;86.60
48589;DHT22;34369;51.174;6.738;2022-11-04T18:45:35;10.50;86.80